Time;durP1;ratioP1;P1;durP2;ratioP2;P2;SDS_P1;SDS_P2;PMS_P1;PMS_P2;Temp;Humidity;BMP_temperature;BMP_pressure;BME280_temperature;BME280_humidity;BME280_pressure;Samples;Min_cycle;Max_cycle;Signal;HPM_P1;HPM_P2
2023/11/11 00:00:49;;;;;;;17.92;9.27;;;8.20;99.90;;;;;;4991788;28;20121;-77
2023/11/11 00:03:17;;;;;;;20.38;10.07;;;8.10;99.90;;;;;;4991597;28;20121;-77
2023/11/11 00:05:43;;;;;;;16.50;9.32;;;8.10;99.90;;;;;;4976010;28;20486;-78
2023/11/11 00:08:09;;;;;;;19.05;9.15;;;8.10;99.90;;;;;;4975237;28;20030;-78
2023/11/11 00:10:35;;;;;;;15.90;9.10;;;8.10;99.90;;;;;;4991613;28;20545;-77
2023/11/11 00:13:03;;;;;;;16.23;8.43;;;8.10;99.90;;;;;;4991609;28;20038;-77
2023/11/11 00:15:28;;;;;;;16.50;8.13;;;8.00;99.90;;;;;;4975786;28;20069;-77
2023/11/11 00:17:54;;;;;;;13.38;7.43;;;8.10;99.90;;;;;;4991651;28;20044;-77
2023/11/11 00:20:21;;;;;;;15.45;7.82;;;8.20;99.90;;;;;;4992924;28;20042;-77
2023/11/11 00:22:49;;;;;;;11.75;6.47;;;8.00;99.90;;;;;;4991171;28;20572;-77
2023/11/11 00:25:18;;;;;;;13.05;7.07;;;8.10;99.90;;;;;;4991877;28;20405;-77
2023/11/11 00:27:44;;;;;;;12.15;5.63;;;8.20;99.90;;;;;;4991565;28;20077;-77
2023/11/11 00:30:12;;;;;;;14.10;6.25;;;8.10;99.90;;;;;;4991436;28;20074;-77
2023/11/11 00:32:38;;;;;;;9.60;5.75;;;8.10;99.90;;;;;;4991358;28;20041;-77
2023/11/11 00:35:07;;;;;;;13.85;5.88;;;8.10;99.90;;;;;;4991878;28;20108;-77
2023/11/11 00:37:34;;;;;;;18.10;7.80;;;8.10;99.90;;;;;;4975244;28;20038;-78
2023/11/11 00:40:00;;;;;;;9.80;5.68;;;8.20;99.90;;;;;;4991043;28;20042;-77
2023/11/11 00:42:25;;;;;;;12.70;6.35;;;8.20;99.90;;;;;;4991208;28;20042;-78
2023/11/11 00:44:51;;;;;;;11.30;5.78;;;8.30;99.90;;;;;;4991339;28;20042;-77
2023/11/11 00:47:17;;;;;;;11.57;6.10;;;8.20;99.90;;;;;;4992094;28;20038;-78
2023/11/11 00:49:43;;;;;;;10.10;5.15;;;8.20;99.90;;;;;;4991210;28;20100;-77
2023/11/11 00:52:09;;;;;;;11.10;5.85;;;8.20;99.90;;;;;;4991513;28;20046;-77
2023/11/11 00:54:38;;;;;;;12.05;6.28;;;8.10;99.90;;;;;;4990768;28;20034;-77
2023/11/11 00:57:04;;;;;;;11.63;5.97;;;8.10;99.90;;;;;;4991235;28;20050;-77
2023/11/11 00:59:30;;;;;;;10.02;5.65;;;8.10;99.90;;;;;;4991047;28;20164;-77
2023/11/11 01:02:00;;;;;;;9.90;5.57;;;8.10;99.90;;;;;;4991152;28;20520;-78
2023/11/11 01:04:26;;;;;;;10.32;5.75;;;8.10;99.90;;;;;;4990625;28;20038;-77
2023/11/11 01:06:52;;;;;;;9.10;5.47;;;7.90;99.90;;;;;;4991282;28;20035;-78
2023/11/11 01:09:19;;;;;;;10.60;5.40;;;7.90;99.90;;;;;;4991121;28;20165;-77
2023/11/11 01:11:45;;;;;;;7.72;3.72;;;7.90;99.90;;;;;;4992290;28;20046;-77
2023/11/11 01:14:11;;;;;;;8.20;4.60;;;7.80;99.90;;;;;;4990609;28;20039;-77
2023/11/11 01:16:37;;;;;;;5.68;3.33;;;7.90;99.90;;;;;;4991010;28;20045;-78
2023/11/11 01:19:03;;;;;;;9.10;3.67;;;7.80;99.90;;;;;;4990993;28;20124;-77
2023/11/11 01:21:29;;;;;;;6.63;3.70;;;7.80;99.90;;;;;;4990770;28;20121;-77
2023/11/11 01:23:55;;;;;;;5.88;3.30;;;7.80;99.90;;;;;;4974217;28;20046;-78
2023/11/11 01:26:23;;;;;;;7.32;3.92;;;7.80;99.90;;;;;;4991188;28;20057;-77
2023/11/11 01:28:49;;;;;;;11.77;3.28;;;7.70;99.90;;;;;;4974984;28;20030;-78
2023/11/11 01:31:15;;;;;;;6.93;3.30;;;7.70;99.90;;;;;;4990991;28;20061;-77
2023/11/11 01:33:41;;;;;;;4.88;2.35;;;7.70;99.90;;;;;;4990719;28;20035;-78
2023/11/11 01:36:07;;;;;;;5.13;2.63;;;7.70;99.90;;;;;;4990860;28;20561;-77
2023/11/11 01:38:34;;;;;;;4.85;2.40;;;7.70;99.90;;;;;;4991973;28;20100;-78
2023/11/11 01:41:03;;;;;;;4.38;2.15;;;7.70;99.90;;;;;;4990572;28;20445;-78
2023/11/11 01:43:29;;;;;;;4.95;2.05;;;7.60;99.90;;;;;;4974557;28;20045;-78
2023/11/11 01:45:58;;;;;;;3.53;2.03;;;7.60;99.90;;;;;;4991027;28;20496;-78
2023/11/11 01:48:25;;;;;;;3.10;2.00;;;7.60;99.90;;;;;;4990762;28;20487;-77
2023/11/11 01:50:52;;;;;;;3.35;2.33;;;7.60;99.90;;;;;;4990559;28;20042;-77
2023/11/11 01:53:19;;;;;;;5.82;2.10;;;7.60;99.90;;;;;;4990240;28;20046;-78
2023/11/11 01:55:47;;;;;;;3.70;1.90;;;7.60;99.90;;;;;;4990661;28;20046;-78
2023/11/11 01:58:15;;;;;;;5.03;1.65;;;7.50;99.90;;;;;;4990875;28;20034;-78
2023/11/11 02:00:41;;;;;;;2.63;1.35;;;7.60;99.90;;;;;;4994228;28;20045;-78
2023/11/11 02:03:08;;;;;;;4.18;1.50;;;7.40;99.90;;;;;;4993968;28;20066;-77
2023/11/11 02:05:34;;;;;;;2.63;1.30;;;7.50;99.90;;;;;;4994132;28;20038;-78
2023/11/11 02:08:03;;;;;;;1.52;0.90;;;7.50;99.90;;;;;;4994128;28;20038;-77
2023/11/11 02:10:30;;;;;;;1.17;0.90;;;7.40;99.90;;;;;;4993954;28;20125;-78
2023/11/11 02:12:57;;;;;;;2.30;1.25;;;7.50;99.90;;;;;;4993918;28;20046;-77
2023/11/11 02:15:23;;;;;;;2.67;0.82;;;7.40;99.90;;;;;;4994345;28;20601;-77
2023/11/11 02:18:04;;;;;;;1.40;0.90;;;7.40;99.90;;;;;;4994174;28;20081;-77
2023/11/11 02:20:33;;;;;;;2.15;0.90;;;7.30;99.90;;;;;;4993783;28;20130;-78
2023/11/11 02:23:02;;;;;;;3.28;1.48;;;7.30;99.90;;;;;;4993624;28;20473;-78
2023/11/11 02:25:28;;;;;;;2.03;0.70;;;7.20;99.90;;;;;;4993806;28;20476;-77
2023/11/11 02:27:54;;;;;;;2.72;0.80;;;7.20;99.90;;;;;;4993732;28;20038;-77
2023/11/11 02:30:20;;;;;;;2.10;0.70;;;7.30;99.90;;;;;;4977354;28;20056;-78
2023/11/11 02:32:45;;;;;;;2.90;0.77;;;7.20;99.90;;;;;;4993185;28;20074;-77
2023/11/11 02:35:11;;;;;;;1.63;0.43;;;7.30;99.90;;;;;;4993805;28;20053;-77
2023/11/11 02:37:37;;;;;;;3.67;0.88;;;7.20;99.90;;;;;;4977633;28;20049;-77
2023/11/11 02:40:03;;;;;;;4.78;0.90;;;7.20;99.90;;;;;;4993266;28;20038;-77
2023/11/11 02:42:29;;;;;;;4.07;0.70;;;7.20;99.90;;;;;;4993333;28;20057;-77
2023/11/11 02:44:54;;;;;;;3.65;0.82;;;7.30;99.90;;;;;;4993072;28;20030;-77
2023/11/11 02:47:20;;;;;;;4.03;0.93;;;7.20;99.90;;;;;;4977130;28;20038;-78
2023/11/11 02:49:45;;;;;;;4.38;1.30;;;7.10;99.90;;;;;;4993297;28;20038;-77
2023/11/11 02:52:11;;;;;;;4.13;0.50;;;7.20;99.90;;;;;;4993249;28;20551;-77
2023/11/11 02:54:37;;;;;;;2.20;0.85;;;7.20;99.90;;;;;;4976965;28;20128;-77
2023/11/11 02:57:03;;;;;;;5.00;0.90;;;7.30;99.90;;;;;;4993264;28;20053;-77
2023/11/11 02:59:28;;;;;;;6.05;0.95;;;7.20;99.90;;;;;;4976812;28;20046;-77
2023/11/11 03:01:54;;;;;;;1.95;0.98;;;7.20;99.90;;;;;;4993296;28;20125;-77
2023/11/11 03:04:21;;;;;;;2.38;0.70;;;7.20;99.90;;;;;;4992749;28;20085;-76
2023/11/11 03:06:46;;;;;;;5.82;1.15;;;7.20;99.90;;;;;;4993048;28;20532;-76
2023/11/11 03:09:12;;;;;;;1.58;0.73;;;7.20;99.90;;;;;;4992965;28;20066;-76
2023/11/11 03:11:39;;;;;;;4.82;1.15;;;7.20;99.90;;;;;;4992259;28;20133;-76
2023/11/11 03:14:05;;;;;;;3.08;0.60;;;7.20;99.90;;;;;;4976624;28;20462;-76
2023/11/11 03:16:36;;;;;;;1.50;0.80;;;7.20;99.90;;;;;;4992772;28;20134;-76
2023/11/11 03:19:02;;;;;;;5.35;0.70;;;7.30;99.90;;;;;;4976678;28;20057;-77
2023/11/11 03:21:27;;;;;;;2.78;0.93;;;7.30;99.90;;;;;;4992628;28;20038;-77
2023/11/11 03:23:53;;;;;;;3.45;0.80;;;7.20;99.90;;;;;;4992380;28;20035;-77
2023/11/11 03:26:19;;;;;;;3.85;0.93;;;7.20;99.90;;;;;;4992740;28;20101;-77
2023/11/11 03:28:45;;;;;;;7.13;1.50;;;7.20;99.90;;;;;;4992523;28;20552;-77
2023/11/11 03:31:11;;;;;;;2.05;0.85;;;7.30;99.90;;;;;;4992463;28;20038;-77
2023/11/11 03:33:36;;;;;;;2.05;0.77;;;7.20;99.90;;;;;;4993321;28;20517;-77
2023/11/11 03:36:02;;;;;;;5.90;0.82;;;7.20;99.90;;;;;;4993762;28;20082;-77
2023/11/11 03:38:29;;;;;;;4.28;0.73;;;7.20;99.90;;;;;;4992451;28;20081;-76
2023/11/11 03:40:57;;;;;;;2.47;0.65;;;7.10;99.90;;;;;;4992088;28;20045;-77
2023/11/11 03:43:23;;;;;;;2.80;0.63;;;7.20;99.90;;;;;;4993167;28;20137;-77
2023/11/11 03:45:48;;;;;;;5.38;1.58;;;7.20;99.90;;;;;;4992270;28;20057;-77
2023/11/11 03:48:14;;;;;;;2.00;0.45;;;7.20;99.90;;;;;;4992243;28;20038;-77
2023/11/11 03:50:40;;;;;;;2.92;0.52;;;7.20;99.90;;;;;;4993462;28;20042;-77
2023/11/11 03:53:06;;;;;;;1.08;0.40;;;7.10;99.90;;;;;;4992117;28;20181;-77
2023/11/11 03:55:32;;;;;;;6.22;1.77;;;7.20;99.90;;;;;;4992092;28;20046;-77
2023/11/11 03:57:57;;;;;;;4.40;0.40;;;7.20;99.90;;;;;;4992334;28;20046;-78
2023/11/11 04:00:23;;;;;;;4.53;0.65;;;7.20;99.90;;;;;;4993145;28;20042;-77
2023/11/11 04:02:49;;;;;;;3.92;0.75;;;7.20;99.90;;;;;;4997384;28;20040;-78
2023/11/11 04:05:15;;;;;;;0.80;0.50;;;7.10;99.90;;;;;;5011528;28;20064;-77
2023/11/11 04:07:41;;;;;;;0.82;0.40;;;7.10;99.90;;;;;;5011745;28;20453;-77
2023/11/11 04:10:08;;;;;;;2.22;0.35;;;7.10;99.90;;;;;;4995030;28;20125;-77
2023/11/11 04:12:33;;;;;;;4.35;0.40;;;7.10;99.90;;;;;;5011368;28;20405;-77
2023/11/11 04:14:59;;;;;;;1.17;0.30;;;7.10;99.90;;;;;;5012620;28;20041;-77
2023/11/11 04:17:25;;;;;;;1.48;0.35;;;7.00;99.90;;;;;;4995039;28;20042;-78
2023/11/11 04:19:50;;;;;;;0.90;0.90;;;7.10;99.90;;;;;;5011157;28;20077;-77
2023/11/11 04:22:16;;;;;;;2.90;0.40;;;7.10;99.90;;;;;;5011447;28;20073;-78
2023/11/11 04:24:42;;;;;;;0.63;0.30;;;7.10;99.90;;;;;;5012342;28;20050;-77
2023/11/11 04:27:08;;;;;;;0.68;0.32;;;7.10;99.90;;;;;;5011369;28;20493;-77
2023/11/11 04:29:34;;;;;;;4.22;0.32;;;7.10;99.90;;;;;;5011096;28;20120;-78
2023/11/11 04:32:00;;;;;;;1.30;0.40;;;7.10;99.90;;;;;;5011104;28;20069;-77
2023/11/11 04:34:28;;;;;;;2.58;0.30;;;7.10;99.90;;;;;;5010656;28;20087;-78
2023/11/11 04:36:56;;;;;;;2.38;0.40;;;7.20;99.90;;;;;;4994673;28;20033;-77
2023/11/11 04:39:22;;;;;;;0.22;0.20;;;7.20;99.90;;;;;;5010751;28;20116;-77
2023/11/11 04:41:48;;;;;;;2.72;0.63;;;7.20;99.90;;;;;;5010958;28;20168;-76
2023/11/11 04:44:14;;;;;;;2.28;0.40;;;7.20;99.90;;;;;;5010728;28;20081;-76
2023/11/11 04:46:39;;;;;;;2.67;0.40;;;7.10;99.90;;;;;;5011142;28;20038;-76
2023/11/11 04:49:05;;;;;;;2.03;0.30;;;7.10;99.90;;;;;;5012243;28;20059;-76
2023/11/11 04:51:31;;;;;;;1.20;0.43;;;7.10;99.90;;;;;;5010748;28;20516;-76
2023/11/11 04:53:56;;;;;;;1.55;0.30;;;7.00;99.90;;;;;;5010510;28;20103;-76
2023/11/11 04:56:22;;;;;;;1.85;0.22;;;7.00;99.90;;;;;;5012034;28;20472;-76
2023/11/11 04:58:48;;;;;;;0.98;0.32;;;7.00;99.90;;;;;;5011054;28;20049;-76
2023/11/11 05:01:14;;;;;;;3.40;0.50;;;7.00;99.90;;;;;;5010539;28;20069;-76
2023/11/11 05:03:40;;;;;;;3.92;0.77;;;7.10;99.90;;;;;;5010305;28;20120;-76
2023/11/11 05:06:06;;;;;;;1.02;0.40;;;7.10;99.90;;;;;;5010793;28;20041;-76
2023/11/11 05:08:32;;;;;;;0.32;0.20;;;7.10;99.90;;;;;;5010663;28;20506;-75
2023/11/11 05:10:58;;;;;;;2.15;0.45;;;7.20;99.90;;;;;;5010491;28;20069;-76
2023/11/11 05:13:24;;;;;;;2.03;0.55;;;7.20;99.90;;;;;;5010285;28;20038;-76
2023/11/11 05:15:59;;;;;;;3.75;0.52;;;7.20;99.90;;;;;;5010625;28;20088;-76
2023/11/11 05:18:26;;;;;;;2.10;0.45;;;7.20;99.90;;;;;;5010637;28;20129;-76
2023/11/11 05:20:52;;;;;;;4.22;0.45;;;7.20;99.90;;;;;;5010384;28;20493;-76
2023/11/11 05:23:17;;;;;;;0.88;0.40;;;7.30;99.90;;;;;;5010376;28;20097;-76
2023/11/11 05:25:43;;;;;;;2.40;0.40;;;7.20;99.90;;;;;;5010478;28;20037;-76
2023/11/11 05:28:08;;;;;;;1.00;0.30;;;7.20;99.90;;;;;;5010749;28;20500;-76
2023/11/11 05:30:34;;;;;;;2.20;0.70;;;7.20;99.90;;;;;;4994086;28;20058;-76
2023/11/11 05:33:00;;;;;;;1.73;0.40;;;7.20;99.90;;;;;;5010353;28;20049;-75
2023/11/11 05:35:25;;;;;;;0.68;0.40;;;7.30;99.90;;;;;;5014254;28;20041;-75
2023/11/11 05:37:53;;;;;;;4.38;1.58;;;7.40;99.90;;;;;;5015623;28;20038;-75
2023/11/11 05:40:19;;;;;;;2.63;0.85;;;7.30;99.90;;;;;;5013987;28;20489;-75
2023/11/11 05:42:49;;;;;;;1.90;0.30;;;7.30;99.90;;;;;;5015232;28;20042;-75
2023/11/11 05:45:18;;;;;;;3.15;0.47;;;7.40;99.90;;;;;;5014151;28;20169;-75
2023/11/11 05:47:44;;;;;;;1.73;0.40;;;7.40;99.90;;;;;;5015333;28;20034;-75
2023/11/11 05:50:11;;;;;;;2.22;0.45;;;7.30;99.90;;;;;;5014029;28;20044;-75
2023/11/11 05:52:36;;;;;;;2.70;0.70;;;7.40;99.90;;;;;;5013787;28;20057;-75
2023/11/11 05:55:03;;;;;;;4.45;0.85;;;7.30;99.90;;;;;;5014250;28;20034;-75
2023/11/11 05:57:29;;;;;;;1.33;0.32;;;7.40;99.90;;;;;;5013909;28;20501;-75
2023/11/11 05:59:55;;;;;;;4.15;0.80;;;7.30;99.90;;;;;;5013751;28;20044;-76
2023/11/11 06:02:20;;;;;;;2.58;0.35;;;7.30;99.90;;;;;;5013916;28;20133;-76
2023/11/11 06:04:46;;;;;;;1.73;0.70;;;7.30;99.90;;;;;;5013503;28;20493;-76
2023/11/11 06:07:12;;;;;;;0.85;0.65;;;7.30;99.90;;;;;;5014936;28;20386;-76
2023/11/11 06:09:39;;;;;;;1.67;0.40;;;7.30;99.90;;;;;;4997270;28;20437;-76
2023/11/11 06:12:05;;;;;;;3.25;0.60;;;7.30;99.90;;;;;;5008622;28;20406;-75
2023/11/11 06:14:31;;;;;;;3.25;0.90;;;7.30;99.90;;;;;;4993687;28;20077;-75
2023/11/11 06:16:57;;;;;;;2.15;0.47;;;7.30;99.90;;;;;;4993929;28;20474;-76
2023/11/11 06:19:25;;;;;;;1.48;0.93;;;7.40;99.90;;;;;;4993781;28;20417;-75
2023/11/11 06:21:51;;;;;;;3.70;0.30;;;7.40;99.90;;;;;;4993820;28;20502;-75
2023/11/11 06:24:17;;;;;;;0.90;0.30;;;7.40;99.90;;;;;;4994722;28;20129;-76
2023/11/11 06:26:43;;;;;;;1.45;0.40;;;7.30;99.90;;;;;;4995076;28;20038;-75
2023/11/11 06:29:08;;;;;;;1.05;0.60;;;7.40;99.90;;;;;;4993704;28;20125;-75
2023/11/11 06:31:35;;;;;;;6.80;0.50;;;7.30;99.90;;;;;;4993751;28;20128;-76
2023/11/11 06:34:00;;;;;;;0.88;0.35;;;7.40;99.90;;;;;;4994509;28;20056;-76
2023/11/11 06:36:26;;;;;;;0.43;0.20;;;7.40;99.90;;;;;;4993881;28;20038;-75
2023/11/11 06:38:52;;;;;;;1.48;0.40;;;7.40;99.90;;;;;;4993861;28;20489;-75
2023/11/11 06:41:19;;;;;;;4.47;0.68;;;7.40;99.90;;;;;;4977189;28;20030;-76
2023/11/11 06:43:46;;;;;;;2.65;1.08;;;7.30;99.90;;;;;;4993081;28;20117;-76
2023/11/11 06:46:12;;;;;;;3.40;0.30;;;7.30;99.90;;;;;;4993677;28;20030;-76
2023/11/11 06:48:38;;;;;;;0.57;0.20;;;7.40;99.90;;;;;;4993471;28;20038;-75
2023/11/11 06:51:04;;;;;;;2.40;0.50;;;7.30;99.90;;;;;;4993475;28;20130;-75
2023/11/11 06:53:29;;;;;;;1.02;0.20;;;7.30;99.90;;;;;;4992923;28;20074;-76
2023/11/11 06:55:55;;;;;;;0.25;0.22;;;7.30;99.90;;;;;;4993292;28;20042;-76
2023/11/11 06:58:21;;;;;;;2.00;0.30;;;7.30;99.90;;;;;;4993284;28;20462;-76
2023/11/11 07:00:46;;;;;;;1.13;0.30;;;7.40;99.90;;;;;;4994326;28;20042;-76
2023/11/11 07:03:12;;;;;;;0.75;0.60;;;7.40;99.90;;;;;;4993913;28;20034;-76
2023/11/11 07:05:37;;;;;;;1.40;0.60;;;7.40;99.90;;;;;;4993077;28;20042;-76
2023/11/11 07:08:05;;;;;;;0.32;0.17;;;7.40;99.90;;;;;;4993042;28;20046;-75
2023/11/11 07:10:31;;;;;;;2.50;0.47;;;7.30;99.90;;;;;;4992881;28;20046;-75
2023/11/11 07:12:57;;;;;;;1.40;0.40;;;7.40;99.90;;;;;;4992832;28;20030;-76
2023/11/11 07:15:23;;;;;;;4.28;0.40;;;7.30;99.90;;;;;;4992900;28;20059;-75
2023/11/11 07:17:49;;;;;;;3.08;0.63;;;7.40;99.90;;;;;;4992755;28;20050;-75
2023/11/11 07:20:19;;;;;;;0.95;0.40;;;7.30;99.90;;;;;;4992736;28;20065;-75
2023/11/11 07:22:45;;;;;;;3.75;0.55;;;7.40;99.90;;;;;;4993824;28;20092;-75
2023/11/11 07:25:11;;;;;;;2.70;0.40;;;7.30;99.90;;;;;;4992733;28;20042;-75
2023/11/11 07:27:37;;;;;;;1.65;0.40;;;7.40;99.90;;;;;;4994050;28;20414;-75
2023/11/11 07:30:05;;;;;;;3.60;0.77;;;7.30;99.90;;;;;;4992665;28;20517;-75
2023/11/11 07:32:31;;;;;;;1.02;0.60;;;7.40;99.90;;;;;;4992288;28;20564;-75
2023/11/11 07:34:57;;;;;;;1.42;0.35;;;7.40;99.90;;;;;;4993377;28;20046;-75
2023/11/11 07:37:24;;;;;;;2.38;0.73;;;7.40;99.90;;;;;;4992749;28;20156;-75
2023/11/11 07:39:50;;;;;;;2.95;0.60;;;7.50;99.90;;;;;;4991985;28;20070;-75
2023/11/11 07:42:16;;;;;;;1.15;0.40;;;7.50;99.90;;;;;;4992117;28;20136;-75
2023/11/11 07:44:42;;;;;;;4.22;0.75;;;7.50;99.90;;;;;;4975719;28;20074;-75
2023/11/11 07:47:10;;;;;;;2.33;0.68;;;7.50;99.90;;;;;;4992452;28;20454;-75
2023/11/11 07:49:36;;;;;;;4.38;0.70;;;7.50;99.90;;;;;;4992220;28;20117;-74
2023/11/11 07:52:03;;;;;;;1.60;0.65;;;7.40;99.90;;;;;;4993436;28;20042;-74
2023/11/11 07:54:33;;;;;;;2.90;0.70;;;7.50;99.90;;;;;;4991762;28;20141;-74
2023/11/11 07:56:59;;;;;;;3.03;0.70;;;7.60;99.90;;;;;;4975734;28;20049;-74
2023/11/11 07:59:24;;;;;;;2.05;0.80;;;7.50;99.90;;;;;;4992037;28;20464;-74
2023/11/11 08:01:50;;;;;;;2.53;0.75;;;7.50;99.90;;;;;;4991892;28;20046;-74
2023/11/11 08:04:15;;;;;;;2.80;0.65;;;7.60;99.90;;;;;;4993068;28;20089;-76
2023/11/11 08:06:43;;;;;;;0.95;0.52;;;7.50;99.90;;;;;;4992208;28;20080;-74
2023/11/11 08:09:10;;;;;;;3.40;1.20;;;7.50;99.90;;;;;;4992955;28;20671;-74
2023/11/11 08:11:36;;;;;;;3.45;0.80;;;7.60;99.90;;;;;;4975671;28;20042;-74
2023/11/11 08:14:04;;;;;;;3.85;0.85;;;7.40;99.90;;;;;;4991415;28;20409;-74
2023/11/11 08:16:30;;;;;;;5.28;1.00;;;7.50;99.90;;;;;;4975473;28;20054;-74
2023/11/11 08:18:55;;;;;;;1.90;0.70;;;7.50;99.90;;;;;;4975857;28;20057;-74
2023/11/11 08:21:25;;;;;;;4.07;0.77;;;7.60;99.90;;;;;;4991609;28;20039;-74
2023/11/11 08:23:52;;;;;;;4.03;0.82;;;7.50;99.90;;;;;;4991412;28;20485;-74
2023/11/11 08:26:18;;;;;;;1.08;0.45;;;7.50;99.90;;;;;;4992979;28;20383;-73
2023/11/11 08:28:44;;;;;;;5.18;0.50;;;7.50;99.90;;;;;;4991716;28;20062;-73
2023/11/11 08:31:11;;;;;;;2.70;0.47;;;7.60;99.90;;;;;;4992749;28;20047;-74
2023/11/11 08:33:36;;;;;;;2.15;0.90;;;7.50;99.90;;;;;;4975063;28;20073;-74
2023/11/11 08:36:02;;;;;;;0.88;0.40;;;7.60;99.90;;;;;;4991917;28;20097;-73
2023/11/11 08:38:28;;;;;;;3.17;0.68;;;7.50;99.90;;;;;;4991492;28;20034;-74
2023/11/11 08:40:53;;;;;;;7.72;0.52;;;7.40;99.90;;;;;;4992570;28;20544;-74
2023/11/11 08:43:20;;;;;;;5.75;0.60;;;7.40;99.90;;;;;;4992263;28;20045;-74
2023/11/11 08:45:46;;;;;;;1.95;0.43;;;7.40;99.90;;;;;;4975054;28;20045;-74
2023/11/11 08:48:13;;;;;;;3.58;0.60;;;7.50;99.90;;;;;;4992741;28;20038;-73
2023/11/11 08:50:39;;;;;;;1.90;0.47;;;7.50;99.90;;;;;;4991241;28;20046;-74
2023/11/11 08:53:05;;;;;;;1.95;0.93;;;7.50;99.90;;;;;;4992132;28;20050;-73
2023/11/11 08:55:31;;;;;;;0.98;0.50;;;7.40;99.90;;;;;;4990299;28;20457;-74
2023/11/11 08:57:56;;;;;;;1.02;0.50;;;7.50;99.90;;;;;;4991885;28;20038;-74
2023/11/11 09:00:23;;;;;;;1.60;0.60;;;7.40;99.90;;;;;;4990698;28;20058;-74
2023/11/11 09:02:49;;;;;;;2.90;0.70;;;7.50;99.90;;;;;;4990736;28;20038;-74
2023/11/11 09:05:14;;;;;;;1.17;0.43;;;7.60;99.90;;;;;;4990583;28;20089;-74
2023/11/11 09:07:40;;;;;;;0.93;0.40;;;7.60;99.90;;;;;;4991514;28;20457;-74
2023/11/11 09:10:06;;;;;;;2.13;1.17;;;7.50;99.90;;;;;;4997132;28;20053;-74
2023/11/11 09:12:32;;;;;;;1.83;1.02;;;7.60;99.90;;;;;;4980920;28;20053;-74
2023/11/11 09:14:58;;;;;;;9.95;3.38;;;7.60;99.90;;;;;;4997324;28;20047;-74
2023/11/11 09:17:24;;;;;;;6.22;1.83;;;7.70;99.90;;;;;;4981220;28;20092;-74
2023/11/11 09:19:53;;;;;;;2.90;0.98;;;7.80;99.90;;;;;;4998467;28;20049;-74
2023/11/11 09:22:19;;;;;;;3.42;1.10;;;7.80;99.90;;;;;;4997333;28;20046;-74
2023/11/11 09:24:44;;;;;;;2.30;0.85;;;7.80;99.90;;;;;;4980934;28;20045;-74
2023/11/11 09:27:10;;;;;;;2.90;0.98;;;7.90;99.90;;;;;;4997345;28;20039;-74
2023/11/11 09:29:35;;;;;;;2.47;0.95;;;8.00;99.90;;;;;;4981064;28;20038;-74
2023/11/11 09:32:01;;;;;;;2.25;0.93;;;8.00;99.90;;;;;;4997619;28;20133;-75
2023/11/11 09:34:27;;;;;;;1.75;0.80;;;8.00;99.90;;;;;;4996920;28;20493;-75
2023/11/11 09:36:53;;;;;;;3.50;0.88;;;8.00;99.90;;;;;;4997334;28;20484;-75
2023/11/11 09:39:19;;;;;;;1.02;0.65;;;8.00;99.90;;;;;;4996821;28;20038;-75
2023/11/11 09:41:45;;;;;;;2.90;0.43;;;8.10;99.90;;;;;;4979773;28;20129;-74
2023/11/11 09:44:11;;;;;;;3.92;0.45;;;8.00;99.90;;;;;;4995887;28;20121;-75
2023/11/11 09:46:54;;;;;;;1.27;0.52;;;8.00;99.90;;;;;;4980954;28;20038;-75
2023/11/11 09:49:20;;;;;;;1.17;0.30;;;8.00;99.90;;;;;;4981000;28;20026;-75
2023/11/11 09:51:47;;;;;;;2.72;0.40;;;8.00;99.90;;;;;;4998158;28;20052;-75
2023/11/11 09:54:13;;;;;;;1.83;0.50;;;8.00;99.90;;;;;;5005801;28;20413;-75
2023/11/11 09:56:43;;;;;;;3.30;0.63;;;8.00;99.90;;;;;;4997026;28;20034;-74
2023/11/11 09:59:12;;;;;;;5.28;0.63;;;7.90;99.90;;;;;;4980730;28;20125;-73
2023/11/11 10:01:44;;;;;;;0.63;0.20;;;7.90;99.90;;;;;;4997212;28;20042;-74
2023/11/11 10:04:10;;;;;;;4.80;0.60;;;7.80;99.90;;;;;;4995797;28;20049;-74
2023/11/11 10:06:39;;;;;;;0.43;0.30;;;7.80;99.90;;;;;;4980596;28;20486;-74
2023/11/11 10:09:08;;;;;;;0.85;0.47;;;7.70;99.90;;;;;;4980926;28;20105;-74
2023/11/11 10:11:34;;;;;;;2.78;0.35;;;7.80;99.90;;;;;;4997201;28;20409;-74
2023/11/11 10:14:00;;;;;;;3.60;0.50;;;7.70;99.90;;;;;;4997185;28;20080;-75
2023/11/11 10:16:26;;;;;;;2.63;0.60;;;7.80;99.90;;;;;;4998503;28;20038;-74
2023/11/11 10:18:53;;;;;;;3.42;0.45;;;7.80;99.90;;;;;;4980859;28;20046;-74
2023/11/11 10:21:20;;;;;;;2.83;0.60;;;7.90;99.90;;;;;;4994102;28;20066;-74
2023/11/11 10:23:49;;;;;;;2.47;0.80;;;7.90;99.90;;;;;;4977315;28;20042;-76
2023/11/11 10:26:16;;;;;;;2.42;0.82;;;7.80;99.90;;;;;;4977650;28;20121;-76
2023/11/11 10:28:49;;;;;;;3.85;0.70;;;7.80;99.90;;;;;;4993763;28;20498;-76
2023/11/11 10:31:15;;;;;;;1.45;0.63;;;7.80;99.90;;;;;;4977514;28;20046;-76
2023/11/11 10:33:42;;;;;;;26.05;13.50;;;7.90;99.90;;;;;;4992968;28;20695;-76
2023/11/11 10:36:08;;;;;;;4.43;2.13;;;7.90;99.90;;;;;;4993500;28;20121;-75
2023/11/11 10:38:34;;;;;;;3.33;0.95;;;7.80;99.90;;;;;;4993719;28;20124;-75
2023/11/11 10:41:00;;;;;;;1.67;0.77;;;7.80;99.90;;;;;;4992934;28;20035;-75
2023/11/11 10:43:28;;;;;;;3.42;1.27;;;8.00;99.90;;;;;;4975255;28;20034;-75
2023/11/11 10:45:54;;;;;;;2.40;1.10;;;8.10;99.90;;;;;;4993215;28;20038;-75
2023/11/11 10:48:22;;;;;;;3.22;1.00;;;8.10;99.90;;;;;;4993334;28;20077;-74
2023/11/11 10:50:51;;;;;;;5.57;0.95;;;8.10;99.90;;;;;;4993093;28;20494;-75
2023/11/11 10:53:17;;;;;;;2.00;0.73;;;8.20;99.90;;;;;;4992886;28;20096;-75
2023/11/11 10:55:51;;;;;;;3.03;0.60;;;8.20;99.90;;;;;;4993297;28;20078;-75
2023/11/11 10:58:19;;;;;;;3.47;0.73;;;8.20;99.90;;;;;;4993273;28;20529;-75
2023/11/11 11:00:46;;;;;;;2.03;1.13;;;8.20;99.90;;;;;;4993025;28;20524;-75
2023/11/11 11:03:13;;;;;;;3.15;1.02;;;8.20;99.90;;;;;;4992623;28;20061;-75
2023/11/11 11:05:39;;;;;;;2.92;0.75;;;8.20;99.90;;;;;;4977193;28;20061;-75
2023/11/11 11:08:29;;;;;;;3.20;1.25;;;8.40;99.90;;;;;;4977116;28;20034;-75
2023/11/11 11:11:07;;;;;;;2.63;1.05;;;8.30;99.90;;;;;;4992914;28;20045;-76
2023/11/11 11:13:36;;;;;;;3.33;0.75;;;8.40;99.90;;;;;;4992523;28;20105;-75
2023/11/11 11:16:02;;;;;;;4.85;1.00;;;8.40;99.90;;;;;;4976092;28;20432;-75
2023/11/11 11:18:27;;;;;;;5.03;0.90;;;8.50;99.90;;;;;;4993004;28;20054;-76
2023/11/11 11:20:54;;;;;;;1.92;0.68;;;8.50;99.90;;;;;;4976465;28;20034;-75
2023/11/11 11:23:22;;;;;;;3.42;0.77;;;8.50;99.90;;;;;;4992691;28;20050;-75
2023/11/11 11:25:50;;;;;;;3.03;0.98;;;8.60;99.90;;;;;;4992792;28;20448;-75
2023/11/11 11:28:18;;;;;;;3.50;0.68;;;8.60;99.90;;;;;;4992587;28;20382;-75
2023/11/11 11:30:50;;;;;;;4.03;0.95;;;8.70;99.90;;;;;;4992953;28;20622;-75
2023/11/11 11:33:33;;;;;;;6.53;0.80;;;8.70;99.90;;;;;;4992267;28;20669;-75
2023/11/11 11:36:01;;;;;;;4.90;0.98;;;8.70;99.90;;;;;;4992755;28;20073;-75
2023/11/11 11:38:31;;;;;;;1.85;0.95;;;8.80;99.90;;;;;;4976621;28;20429;-76
2023/11/11 11:41:07;;;;;;;3.17;1.13;;;8.80;99.90;;;;;;4976090;28;20038;-75
2023/11/11 11:43:34;;;;;;;2.10;1.17;;;8.80;99.90;;;;;;4991987;28;20050;-75
2023/11/11 11:46:03;;;;;;;3.92;0.90;;;8.80;99.90;;;;;;4992693;28;20089;-75
2023/11/11 11:48:38;;;;;;;2.30;0.90;;;8.80;99.90;;;;;;4992347;28;20553;-76
2023/11/11 11:51:05;;;;;;;3.40;0.70;;;8.80;99.90;;;;;;4992240;28;20050;-76
2023/11/11 11:53:31;;;;;;;7.75;1.15;;;8.80;99.90;;;;;;4975615;28;20528;-75
2023/11/11 11:55:58;;;;;;;0.52;0.43;;;8.80;99.90;;;;;;4992363;28;20052;-73
2023/11/11 11:58:24;;;;;;;3.60;0.90;;;8.80;99.90;;;;;;4993523;28;20428;-72
2023/11/11 12:00:49;;;;;;;5.05;1.15;;;8.80;99.90;;;;;;4992036;28;20042;-73
2023/11/11 12:03:16;;;;;;;2.92;0.77;;;8.70;99.90;;;;;;4991633;28;20046;-75
2023/11/11 12:05:42;;;;;;;2.65;1.33;;;8.80;99.90;;;;;;4992246;28;20409;-73
2023/11/11 12:08:08;;;;;;;3.80;1.15;;;8.90;99.90;;;;;;4992028;28;20042;-72
2023/11/11 12:10:47;;;;;;;8.85;1.63;;;8.90;99.90;;;;;;4992048;28;20053;-73
2023/11/11 12:13:13;;;;;;;5.00;0.65;;;8.90;99.90;;;;;;4991500;28;20046;-74
2023/11/11 12:15:39;;;;;;;1.83;0.60;;;8.90;99.90;;;;;;4975825;28;20461;-73
2023/11/11 12:18:09;;;;;;;1.67;0.70;;;9.00;99.90;;;;;;4992002;28;20625;-73
2023/11/11 12:20:41;;;;;;;3.58;0.63;;;9.10;99.90;;;;;;4991592;28;20078;-73
2023/11/11 12:23:10;;;;;;;1.45;0.47;;;9.10;99.90;;;;;;4991443;28;20034;-74
2023/11/11 12:25:37;;;;;;;3.95;0.65;;;9.10;99.90;;;;;;4991500;28;20575;-74
2023/11/11 12:28:03;;;;;;;4.10;0.85;;;9.10;99.90;;;;;;4975438;28;20030;-74
2023/11/11 12:30:28;;;;;;;3.80;0.90;;;9.10;99.90;;;;;;4991526;28;20518;-74
2023/11/11 12:33:02;;;;;;;4.82;0.57;;;9.10;99.90;;;;;;4991042;28;20043;-74
2023/11/11 12:35:28;;;;;;;1.42;0.52;;;9.20;99.90;;;;;;4991472;28;20050;-74
2023/11/11 12:37:54;;;;;;;2.20;0.68;;;9.10;99.90;;;;;;4991479;28;20124;-74
2023/11/11 12:40:30;;;;;;;4.85;0.60;;;9.10;99.90;;;;;;4991131;28;20130;-75
2023/11/11 12:42:56;;;;;;;3.45;0.65;;;9.10;99.90;;;;;;4990250;28;20042;-74
2023/11/11 12:45:21;;;;;;;3.00;0.70;;;9.20;99.90;;;;;;4991189;28;20049;-74
2023/11/11 12:47:52;;;;;;;2.58;0.60;;;9.10;99.90;;;;;;4991566;28;20042;-74
2023/11/11 12:50:18;;;;;;;2.70;0.85;;;9.20;99.90;;;;;;4991450;28;20113;-75
2023/11/11 12:53:04;;;;;;;2.60;0.85;;;9.20;99.90;;;;;;4990758;28;20128;-74